createdAt,value
2023-05-08T00:00:38.932Z,8.29
2023-05-08T00:03:07.313Z,8.75
2023-05-08T00:05:35.283Z,8.81
2023-05-08T00:08:03.070Z,8.41
2023-05-08T00:10:31.186Z,7.92
2023-05-08T00:12:59.455Z,7.90
2023-05-08T00:15:27.282Z,8.81
2023-05-08T00:17:55.440Z,7.67
2023-05-08T00:20:23.550Z,7.29
2023-05-08T00:22:54.282Z,7.41
2023-05-08T00:25:22.473Z,7.14
2023-05-08T00:27:54.833Z,7.14
2023-05-08T00:30:25.279Z,7.71
2023-05-08T00:32:55.818Z,7.49
2023-05-08T00:35:28.179Z,7.59
2023-05-08T00:37:55.976Z,7.19
2023-05-08T00:40:31.639Z,7.45
2023-05-08T00:43:02.188Z,7.58
2023-05-08T00:45:52.251Z,7.18
2023-05-08T00:48:20.979Z,6.94
2023-05-08T00:50:55.011Z,6.89
2023-05-08T00:53:26.321Z,7.27
2023-05-08T00:56:07.881Z,6.70
2023-05-08T00:59:10.614Z,6.72
2023-05-08T01:01:38.790Z,7.36
2023-05-08T01:04:06.893Z,7.05
2023-05-08T01:06:54.878Z,6.90
2023-05-08T01:09:23.006Z,7.42
2023-05-08T01:11:50.749Z,6.93
2023-05-08T01:14:36.655Z,7.05
2023-05-08T01:20:36.661Z,7.59
2023-05-08T01:23:09.031Z,6.92
2023-05-08T01:26:08.804Z,6.77
2023-05-08T01:28:36.853Z,7.55
2023-05-08T01:31:11.730Z,6.69
2023-05-08T01:33:50.670Z,6.46
2023-05-08T01:36:38.660Z,6.51
2023-05-08T01:39:15.875Z,6.83
2023-05-08T01:42:06.408Z,6.84
2023-05-08T01:44:35.895Z,6.56
2023-05-08T01:47:06.920Z,6.77
2023-05-08T01:49:43.992Z,6.40
2023-05-08T01:52:43.894Z,6.64
2023-05-08T01:55:13.195Z,6.23
2023-05-08T01:57:42.876Z,6.43
2023-05-08T02:00:11.080Z,6.08
2023-05-08T02:02:38.759Z,6.44
2023-05-08T02:05:21.562Z,7.00
2023-05-08T02:07:55.657Z,6.67
2023-05-08T02:13:33.322Z,6.33
2023-05-08T02:16:02.551Z,6.11
2023-05-08T02:18:31.281Z,6.32
2023-05-08T02:20:59.366Z,6.11
2023-05-08T02:23:32.964Z,5.85
2023-05-08T02:26:03.792Z,6.02
2023-05-08T02:28:35.421Z,6.07
2023-05-08T02:31:09.351Z,5.89
2023-05-08T02:33:54.671Z,6.82
2023-05-08T02:36:22.740Z,6.13
2023-05-08T02:42:09.322Z,5.59
2023-05-08T02:44:37.570Z,6.50
2023-05-08T02:47:35.689Z,6.60
2023-05-08T02:50:14.424Z,5.53
2023-05-08T02:52:50.018Z,6.08
2023-05-08T02:55:22.667Z,6.07
2023-05-08T02:57:50.440Z,6.58
2023-05-08T03:00:20.483Z,5.60
2023-05-08T03:02:53.640Z,6.03
2023-05-08T03:05:29.428Z,5.60
2023-05-08T03:07:58.232Z,5.30
2023-05-08T03:10:28.967Z,5.88
2023-05-08T03:12:56.852Z,5.48
2023-05-08T03:15:36.893Z,5.94
2023-05-08T03:18:11.597Z,6.40
2023-05-08T03:20:40.668Z,6.86
2023-05-08T03:23:11.432Z,6.50
2023-05-08T03:25:47.992Z,6.32
2023-05-08T03:28:16.572Z,5.85
2023-05-08T03:30:47.374Z,5.71
2023-05-08T03:33:15.584Z,5.47
2023-05-08T03:35:43.666Z,5.42
2023-05-08T03:38:11.601Z,5.91
2023-05-08T03:40:39.564Z,5.54
2023-05-08T03:43:16.538Z,5.99
2023-05-08T03:45:44.900Z,7.16
2023-05-08T03:48:13.518Z,6.43
2023-05-08T03:50:41.729Z,5.88
2023-05-08T03:53:09.735Z,6.22
2023-05-08T03:55:38.714Z,5.84
2023-05-08T03:58:07.033Z,5.69
2023-05-08T04:01:02.720Z,5.99
2023-05-08T04:03:41.284Z,5.89
2023-05-08T04:06:49.317Z,6.50
2023-05-08T04:09:40.475Z,6.91
2023-05-08T04:12:15.568Z,6.76
2023-05-08T04:15:00.726Z,7.21
2023-05-08T04:17:58.361Z,7.16
2023-05-08T04:21:07.185Z,7.25
2023-05-08T04:23:34.989Z,7.37
2023-05-08T04:26:05.428Z,7.71
2023-05-08T04:28:35.414Z,7.65
2023-05-08T04:31:06.388Z,7.96
2023-05-08T04:33:39.716Z,8.01
2023-05-08T04:36:13.866Z,8.39
2023-05-08T04:38:54.868Z,8.58
2023-05-08T04:41:35.841Z,8.71
2023-05-08T04:44:05.085Z,8.95
2023-05-08T04:46:42.531Z,9.08
2023-05-08T04:49:12.387Z,9.27
2023-05-08T04:51:41.292Z,9.47
2023-05-08T04:54:43.827Z,9.64
2023-05-08T04:57:38.059Z,9.67
2023-05-08T05:00:08.811Z,9.70
2023-05-08T05:02:46.397Z,9.90
2023-05-08T05:05:21.837Z,10.01
2023-05-08T05:07:51.204Z,9.90
2023-05-08T05:10:21.074Z,10.16
2023-05-08T05:13:00.267Z,10.29
2023-05-08T05:15:31.432Z,10.61
2023-05-08T05:18:01.256Z,10.52
2023-05-08T05:20:35.884Z,10.40
2023-05-08T05:23:15.271Z,10.77
2023-05-08T05:25:50.027Z,11.02
2023-05-08T05:28:32.618Z,10.71
2023-05-08T05:31:04.044Z,10.65
2023-05-08T05:33:58.030Z,10.93
2023-05-08T05:36:26.384Z,10.84
2023-05-08T05:38:54.659Z,10.78
2023-05-08T05:41:25.921Z,11.05
2023-05-08T05:43:54.202Z,10.92
2023-05-08T05:49:39.236Z,11.29
2023-05-08T05:52:07.856Z,11.36
2023-05-08T05:54:39.485Z,11.53
2023-05-08T05:57:07.962Z,11.72
2023-05-08T05:59:36.214Z,12.12
2023-05-08T06:02:04.758Z,12.38
2023-05-08T06:04:33.046Z,12.07
2023-05-08T06:07:01.294Z,12.23
2023-05-08T06:09:29.138Z,12.20
2023-05-08T06:12:00.402Z,12.54
2023-05-08T06:14:29.259Z,12.57
2023-05-08T06:16:58.529Z,13.16
2023-05-08T06:19:31.071Z,12.86
2023-05-08T06:22:04.182Z,12.77
2023-05-08T06:24:54.170Z,12.97
2023-05-08T06:27:24.016Z,12.68
2023-05-08T06:32:42.888Z,12.74
2023-05-08T06:35:15.640Z,12.33
2023-05-08T06:37:47.818Z,12.50
2023-05-08T06:40:18.918Z,12.79
2023-05-08T06:42:47.486Z,12.86
2023-05-08T06:45:16.256Z,12.67
2023-05-08T06:47:57.120Z,12.65
2023-05-08T06:50:40.747Z,12.63
2023-05-08T06:53:10.351Z,12.85
2023-05-08T06:55:39.619Z,12.88
2023-05-08T06:58:08.811Z,13.18
2023-05-08T07:00:37.835Z,13.26
2023-05-08T07:03:06.128Z,13.47
2023-05-08T07:05:34.097Z,13.28
2023-05-08T07:08:01.899Z,13.24
2023-05-08T07:10:36.902Z,13.46
2023-05-08T07:13:08.969Z,13.32
2023-05-08T07:15:39.255Z,13.81
2023-05-08T07:18:07.115Z,13.86
2023-05-08T07:20:36.721Z,13.98
2023-05-08T07:23:08.009Z,14.70
2023-05-08T07:26:14.872Z,14.85
2023-05-08T07:28:42.952Z,14.80
2023-05-08T07:31:10.740Z,15.54
2023-05-08T07:33:38.536Z,15.87
2023-05-08T07:36:06.728Z,16.79
2023-05-08T07:41:41.112Z,16.24
2023-05-08T07:44:09.830Z,16.85
2023-05-08T07:46:38.274Z,16.71
2023-05-08T07:49:06.568Z,16.44
2023-05-08T07:51:34.377Z,16.17
2023-05-08T07:54:02.518Z,15.65
2023-05-08T07:56:30.357Z,15.64
2023-05-08T07:58:58.073Z,16.14
2023-05-08T08:01:26.179Z,17.63
2023-05-08T08:03:54.821Z,18.84
2023-05-08T08:06:22.632Z,19.20
2023-05-08T08:08:50.795Z,20.08
2023-05-08T08:11:18.995Z,19.43
2023-05-08T08:13:47.367Z,19.72
2023-05-08T08:16:19.712Z,19.55
2023-05-08T08:18:49.679Z,19.47
2023-05-08T08:21:22.204Z,19.82
2023-05-08T08:23:51.026Z,20.09
2023-05-08T08:26:18.829Z,20.13
2023-05-08T08:28:46.640Z,20.36
2023-05-08T08:31:16.744Z,19.92
2023-05-08T08:33:44.742Z,20.17
2023-05-08T08:36:15.867Z,20.49
2023-05-08T08:38:43.942Z,20.25
2023-05-08T08:41:13.928Z,21.23
2023-05-08T08:43:43.672Z,20.59
2023-05-08T08:46:15.918Z,20.36
2023-05-08T08:48:44.870Z,20.71
2023-05-08T08:51:19.249Z,20.30
2023-05-08T08:53:47.300Z,20.90
2023-05-08T08:56:16.790Z,21.28
2023-05-08T08:58:59.830Z,22.04
2023-05-08T09:01:31.456Z,21.17
2023-05-08T09:04:14.852Z,21.26
2023-05-08T09:06:43.981Z,21.52
2023-05-08T09:09:12.696Z,21.57
2023-05-08T09:11:41.760Z,21.91
2023-05-08T09:14:10.094Z,21.57
2023-05-08T09:16:38.047Z,21.58
2023-05-08T09:19:05.865Z,21.72
2023-05-08T09:21:34.078Z,22.13
2023-05-08T09:24:02.667Z,21.55
2023-05-08T09:26:32.769Z,20.43
2023-05-08T09:29:10.958Z,20.35
2023-05-08T09:31:42.516Z,22.02
2023-05-08T09:34:12.432Z,22.52
2023-05-08T09:36:42.270Z,22.69
2023-05-08T09:39:12.786Z,22.72
2023-05-08T09:41:45.949Z,22.69
2023-05-08T09:44:14.400Z,23.94
2023-05-08T09:46:42.355Z,22.93
2023-05-08T09:49:14.754Z,23.30
2023-05-08T09:51:54.496Z,23.43
2023-05-08T09:54:22.490Z,22.65
2023-05-08T09:56:56.345Z,22.26
2023-05-08T09:59:33.965Z,22.76
2023-05-08T10:02:10.965Z,21.78
2023-05-08T10:04:44.136Z,21.56
2023-05-08T10:07:13.449Z,22.64
2023-05-08T10:09:50.169Z,22.57
2023-05-08T10:12:25.928Z,22.45
2023-05-08T10:14:54.287Z,21.74
2023-05-08T10:17:48.705Z,21.90
2023-05-08T10:20:17.327Z,21.62
2023-05-08T10:22:49.155Z,21.41
2023-05-08T10:25:25.920Z,22.23
2023-05-08T10:28:15.117Z,21.38
2023-05-08T10:30:45.186Z,22.63
2023-05-08T10:33:13.063Z,22.10
2023-05-08T10:35:40.828Z,22.61
2023-05-08T10:38:10.211Z,21.97
2023-05-08T10:40:38.154Z,22.92
2023-05-08T10:43:07.478Z,22.29
2023-05-08T10:45:41.916Z,22.52
2023-05-08T10:48:25.061Z,22.05
2023-05-08T10:51:07.068Z,22.02
2023-05-08T10:53:45.127Z,21.84
2023-05-08T10:56:19.833Z,22.86
2023-05-08T10:58:50.472Z,21.58
2023-05-08T11:01:19.804Z,21.73
2023-05-08T11:03:51.110Z,22.81
2023-05-08T11:06:42.120Z,21.92
2023-05-08T11:09:10.845Z,22.52
2023-05-08T11:11:39.528Z,22.95
2023-05-08T11:14:07.265Z,22.77
2023-05-08T11:16:53.984Z,22.90
2023-05-08T11:19:25.507Z,22.49
2023-05-08T11:22:12.907Z,22.51
2023-05-08T11:24:51.384Z,22.94
2023-05-08T11:27:19.302Z,23.06
2023-05-08T11:30:11.931Z,23.26
2023-05-08T11:33:00.329Z,22.62
2023-05-08T11:35:46.467Z,22.70
2023-05-08T11:38:41.214Z,22.17
2023-05-08T11:41:22.401Z,23.45
2023-05-08T11:44:06.137Z,22.72
2023-05-08T11:46:45.357Z,22.48
2023-05-08T11:49:18.394Z,23.62
2023-05-08T11:51:50.837Z,22.13
2023-05-08T11:54:19.281Z,23.95
2023-05-08T11:56:50.897Z,23.47
2023-05-08T11:59:44.229Z,23.13
2023-05-08T12:02:17.270Z,23.34
2023-05-08T12:04:46.295Z,24.54
2023-05-08T12:07:23.059Z,22.99
2023-05-08T12:09:51.800Z,22.99
2023-05-08T12:12:19.546Z,23.20
2023-05-08T12:14:53.823Z,22.70
2023-05-08T12:17:22.440Z,22.75
2023-05-08T12:20:03.137Z,23.12
2023-05-08T12:22:43.691Z,22.98
2023-05-08T12:25:31.982Z,22.08
2023-05-08T12:30:58.456Z,22.31
2023-05-08T12:33:29.797Z,22.70
2023-05-08T12:36:01.725Z,21.74
2023-05-08T12:38:30.299Z,23.36
2023-05-08T12:41:04.540Z,23.15
2023-05-08T12:43:38.934Z,22.58
2023-05-08T12:46:06.829Z,23.46
2023-05-08T12:48:35.130Z,23.45
2023-05-08T12:51:04.195Z,23.56
2023-05-08T12:53:32.709Z,23.15
2023-05-08T12:56:03.288Z,21.73
2023-05-08T12:58:33.667Z,21.63
2023-05-08T13:01:12.441Z,22.15
2023-05-08T13:03:56.074Z,22.63
2023-05-08T13:07:20.434Z,22.34
2023-05-08T13:09:57.430Z,21.75
2023-05-08T13:12:28.511Z,21.68
2023-05-08T13:15:03.430Z,22.38
2023-05-08T13:17:46.617Z,21.70
2023-05-08T13:21:00.044Z,22.05
2023-05-08T13:23:28.278Z,22.38
2023-05-08T13:26:04.711Z,22.80
2023-05-08T13:28:34.176Z,22.60
2023-05-08T13:31:01.908Z,22.76
2023-05-08T13:33:29.700Z,22.99
2023-05-08T13:36:06.057Z,22.82
2023-05-08T13:38:34.971Z,23.14
2023-05-08T13:41:03.153Z,22.13
2023-05-08T13:43:30.860Z,21.97
2023-05-08T13:45:58.640Z,22.17
2023-05-08T13:48:27.316Z,22.67
2023-05-08T13:50:56.607Z,22.34
2023-05-08T13:53:24.342Z,22.22
2023-05-08T13:55:52.908Z,21.62
2023-05-08T13:58:23.372Z,21.81
2023-05-08T14:00:51.272Z,22.48
2023-05-08T14:03:19.650Z,21.96
2023-05-08T14:05:47.445Z,21.03
2023-05-08T14:08:23.961Z,20.86
2023-05-08T14:10:58.141Z,20.55
2023-05-08T14:13:26.023Z,20.64
2023-05-08T14:15:54.206Z,21.42
2023-05-08T14:18:26.124Z,20.89
2023-05-08T14:20:57.385Z,21.98
2023-05-08T14:23:26.009Z,22.13
2023-05-08T14:25:58.571Z,21.56
2023-05-08T14:28:27.215Z,20.97
2023-05-08T14:30:55.009Z,20.79
2023-05-08T14:33:23.361Z,21.57
2023-05-08T14:36:00.351Z,21.41
2023-05-08T14:38:28.181Z,21.65
2023-05-08T14:40:56.955Z,20.85
2023-05-08T14:43:25.317Z,20.18
2023-05-08T14:45:59.366Z,20.06
2023-05-08T14:48:27.871Z,20.38
2023-05-08T14:50:58.258Z,20.55
2023-05-08T14:53:26.287Z,20.20
2023-05-08T14:56:04.163Z,20.59
2023-05-08T14:58:32.082Z,20.71
2023-05-08T15:01:00.831Z,21.07
2023-05-08T15:03:29.227Z,20.52
2023-05-08T15:05:58.435Z,20.70
2023-05-08T15:08:26.659Z,20.27
2023-05-08T15:10:55.802Z,19.86
2023-05-08T15:13:23.594Z,20.52
2023-05-08T15:15:52.022Z,20.33
2023-05-08T15:18:28.663Z,21.15
2023-05-08T15:20:58.232Z,20.50
2023-05-08T15:23:26.657Z,20.52
2023-05-08T15:25:55.696Z,20.36
2023-05-08T15:28:41.570Z,20.46
2023-05-08T15:31:11.512Z,20.31
2023-05-08T15:33:45.060Z,20.45
2023-05-08T15:36:14.114Z,20.35
2023-05-08T15:38:42.679Z,19.83
2023-05-08T15:41:15.094Z,19.74
2023-05-08T15:43:45.570Z,20.15
2023-05-08T15:46:15.813Z,19.67
2023-05-08T15:48:44.045Z,19.37
2023-05-08T15:51:12.045Z,19.24
2023-05-08T15:53:39.701Z,19.49
2023-05-08T15:56:08.055Z,20.10
2023-05-08T15:58:39.160Z,20.37
2023-05-08T16:01:07.337Z,19.25
2023-05-08T16:03:35.848Z,19.91
2023-05-08T16:06:03.739Z,19.31
2023-05-08T16:08:31.830Z,19.68
2023-05-08T16:11:00.064Z,19.09
2023-05-08T16:13:33.341Z,18.76
2023-05-08T16:16:05.468Z,19.59
2023-05-08T16:18:36.421Z,19.45
2023-05-08T16:21:10.941Z,18.82
2023-05-08T16:23:40.572Z,18.45
2023-05-08T16:26:08.713Z,18.60
2023-05-08T16:28:36.391Z,18.71
2023-05-08T16:31:05.237Z,18.55
2023-05-08T16:33:33.505Z,18.25
2023-05-08T16:36:01.359Z,18.83
2023-05-08T16:38:29.194Z,19.55
2023-05-08T16:41:04.256Z,18.97
2023-05-08T16:43:32.157Z,18.36
2023-05-08T16:46:00.397Z,18.34
2023-05-08T16:48:29.241Z,18.69
2023-05-08T16:50:57.378Z,18.38
2023-05-08T16:53:27.612Z,19.09
2023-05-08T16:55:55.605Z,19.55
2023-05-08T16:58:23.426Z,19.51
2023-05-08T17:00:51.544Z,19.39
2023-05-08T17:03:19.456Z,19.32
2023-05-08T17:05:48.454Z,18.69
2023-05-08T17:08:16.706Z,18.72
2023-05-08T17:10:44.551Z,18.27
2023-05-08T17:13:12.978Z,18.26
2023-05-08T17:15:41.411Z,17.88
2023-05-08T17:18:09.193Z,17.84
2023-05-08T17:20:41.140Z,17.47
2023-05-08T17:23:27.741Z,17.39
2023-05-08T17:25:56.740Z,17.24
2023-05-08T17:28:24.568Z,16.61
2023-05-08T17:30:57.698Z,17.00
2023-05-08T17:33:28.602Z,17.14
2023-05-08T17:35:56.487Z,17.11
2023-05-08T17:38:24.393Z,16.43
2023-05-08T17:40:52.583Z,16.68
2023-05-08T17:43:20.959Z,16.35
2023-05-08T17:45:50.830Z,16.12
2023-05-08T17:48:19.011Z,16.14
2023-05-08T17:50:47.180Z,15.97
2023-05-08T17:53:16.254Z,15.81
2023-05-08T17:55:44.641Z,16.06
2023-05-08T17:58:13.263Z,15.49
2023-05-08T18:00:41.231Z,15.79
2023-05-08T18:03:09.901Z,15.28
2023-05-08T18:05:39.099Z,15.63
2023-05-08T18:08:06.920Z,15.27
2023-05-08T18:10:35.612Z,15.39
2023-05-08T18:13:04.978Z,15.06
2023-05-08T18:15:36.357Z,15.19
2023-05-08T18:18:04.610Z,14.73
2023-05-08T18:20:32.556Z,14.54
2023-05-08T18:23:00.263Z,14.75
2023-05-08T18:25:28.399Z,14.72
2023-05-08T18:28:03.343Z,14.50
2023-05-08T18:30:32.224Z,14.15
2023-05-08T18:33:02.759Z,14.47
2023-05-08T18:35:32.250Z,14.44
2023-05-08T18:38:01.124Z,14.34
2023-05-08T18:40:29.610Z,14.33
2023-05-08T18:42:58.310Z,14.29
2023-05-08T18:45:27.550Z,13.85
2023-05-08T18:47:57.881Z,13.41
2023-05-08T18:50:26.095Z,13.75
2023-05-08T18:52:53.975Z,13.61
2023-05-08T18:55:21.969Z,14.10
2023-05-08T19:00:39.327Z,13.71
2023-05-08T19:03:07.623Z,13.39
2023-05-08T19:05:35.507Z,13.21
2023-05-08T19:10:50.991Z,13.56
2023-05-08T19:13:26.462Z,13.36
2023-05-08T19:16:02.501Z,13.16
2023-05-08T19:18:31.531Z,13.13
2023-05-08T19:21:00.411Z,13.05
2023-05-08T19:23:28.172Z,12.86
2023-05-08T19:25:55.861Z,13.17
2023-05-08T19:28:24.000Z,12.47
2023-05-08T19:30:51.702Z,12.71
2023-05-08T19:33:21.024Z,12.58
2023-05-08T19:35:49.182Z,12.99
2023-05-08T19:38:17.536Z,12.79
2023-05-08T19:40:57.475Z,12.98
2023-05-08T19:43:30.590Z,12.92
2023-05-08T19:46:01.678Z,12.49
2023-05-08T19:48:29.760Z,12.57
2023-05-08T19:50:57.550Z,12.86
2023-05-08T19:53:30.809Z,12.54
2023-05-08T19:55:58.526Z,12.49
2023-05-08T19:58:26.388Z,12.73
2023-05-08T20:00:54.408Z,12.19
2023-05-08T20:03:23.205Z,12.42
2023-05-08T20:05:51.448Z,12.40
2023-05-08T20:08:19.232Z,12.18
2023-05-08T20:10:49.416Z,12.15
2023-05-08T20:13:17.634Z,11.67
2023-05-08T20:15:45.632Z,11.85
2023-05-08T20:18:13.897Z,12.17
2023-05-08T20:20:41.625Z,12.07
2023-05-08T20:23:09.400Z,11.57
2023-05-08T20:25:46.675Z,11.80
2023-05-08T20:28:16.417Z,11.68
2023-05-08T20:30:44.584Z,11.90
2023-05-08T20:33:13.638Z,11.57
2023-05-08T20:35:45.951Z,11.48
2023-05-08T20:38:16.678Z,11.43
2023-05-08T20:41:05.196Z,11.11
2023-05-08T20:43:35.861Z,11.88
2023-05-08T20:46:16.470Z,11.45
2023-05-08T20:48:45.731Z,11.29
2023-05-08T20:51:17.727Z,11.46
2023-05-08T20:53:45.980Z,11.54
2023-05-08T20:56:19.155Z,11.60
2023-05-08T20:58:49.900Z,11.17
2023-05-08T21:01:20.715Z,11.25
2023-05-08T21:04:05.734Z,11.56
2023-05-08T21:06:36.000Z,11.75
2023-05-08T21:09:07.060Z,11.62
2023-05-08T21:11:35.485Z,11.90
2023-05-08T21:14:03.331Z,11.35
2023-05-08T21:16:31.599Z,11.72
2023-05-08T21:19:14.417Z,11.94
2023-05-08T21:21:49.753Z,11.00
2023-05-08T21:24:46.278Z,11.48
2023-05-08T21:27:14.942Z,11.37
2023-05-08T21:29:42.604Z,10.96
2023-05-08T21:32:10.571Z,10.96
2023-05-08T21:34:38.793Z,11.12
2023-05-08T21:37:06.532Z,11.19
2023-05-08T21:39:34.244Z,10.92
2023-05-08T21:42:03.702Z,11.62
2023-05-08T21:44:36.243Z,11.85
2023-05-08T21:47:04.476Z,11.04
2023-05-08T21:49:32.126Z,10.90
2023-05-08T21:51:59.814Z,10.99
2023-05-08T21:54:27.944Z,10.73
2023-05-08T21:56:55.688Z,10.56
2023-05-08T21:59:29.449Z,10.53
2023-05-08T22:01:57.298Z,10.73
2023-05-08T22:04:31.100Z,10.37
2023-05-08T22:06:58.823Z,10.12
2023-05-08T22:09:26.605Z,10.40
2023-05-08T22:11:54.825Z,10.27
2023-05-08T22:14:22.524Z,10.21
2023-05-08T22:16:50.351Z,10.18
2023-05-08T22:19:22.965Z,10.14
2023-05-08T22:21:50.735Z,10.07
2023-05-08T22:24:30.023Z,9.67
2023-05-08T22:26:57.816Z,9.75
2023-05-08T22:29:25.501Z,9.93
2023-05-08T22:31:55.946Z,9.96
2023-05-08T22:34:27.431Z,9.92
2023-05-08T22:36:58.111Z,9.69
2023-05-08T22:39:26.500Z,10.22
2023-05-08T22:41:54.555Z,9.44
2023-05-08T22:44:25.604Z,10.21
2023-05-08T22:46:53.700Z,9.59
2023-05-08T22:49:27.470Z,9.79
2023-05-08T22:51:55.679Z,9.65
2023-05-08T22:54:23.464Z,9.46
2023-05-08T22:56:51.625Z,9.54
2023-05-08T22:59:19.295Z,9.61
2023-05-08T23:01:47.530Z,9.59
2023-05-08T23:04:35.710Z,9.61
2023-05-08T23:07:23.469Z,9.40
2023-05-08T23:09:51.593Z,9.63
2023-05-08T23:12:19.945Z,9.58
2023-05-08T23:14:47.768Z,9.64
2023-05-08T23:17:15.865Z,10.30
2023-05-08T23:19:43.656Z,10.35
2023-05-08T23:22:12.158Z,9.84
2023-05-08T23:25:00.269Z,9.46
2023-05-08T23:27:28.012Z,9.42
2023-05-08T23:29:56.468Z,9.32
2023-05-08T23:32:24.523Z,9.04
2023-05-08T23:34:52.384Z,8.96
2023-05-08T23:37:20.112Z,8.67
2023-05-08T23:39:48.276Z,8.86
2023-05-08T23:42:16.185Z,8.42
2023-05-08T23:44:43.949Z,8.23
2023-05-08T23:47:12.077Z,8.08
2023-05-08T23:49:39.872Z,8.20
2023-05-08T23:52:08.699Z,7.76
2023-05-08T23:54:36.791Z,7.89
2023-05-08T23:57:04.622Z,7.35
2023-05-08T23:59:32.393Z,7.19
